createdAt,value
2018-04-14T00:02:02.900Z,8.40
2018-04-14T00:04:30.431Z,8.40
2018-04-14T00:06:57.936Z,8.40
2018-04-14T00:09:26.235Z,8.20
2018-04-14T00:11:53.744Z,8.10
2018-04-14T00:14:21.235Z,8.20
2018-04-14T00:16:49.513Z,8.10
2018-04-14T00:19:17.058Z,8.10
2018-04-14T00:21:44.586Z,8.10
2018-04-14T00:24:12.108Z,8.10
2018-04-14T00:26:39.639Z,8.00
2018-04-14T00:29:07.913Z,8.00
2018-04-14T00:31:36.196Z,8.00
2018-04-14T00:34:04.496Z,7.90
2018-04-14T00:36:32.014Z,8.00
2018-04-14T00:38:59.514Z,7.90
2018-04-14T00:41:27.031Z,7.90
2018-04-14T00:43:54.528Z,7.90
2018-04-14T00:46:22.058Z,7.90
2018-04-14T00:48:50.324Z,7.90
2018-04-14T00:51:17.849Z,7.90
2018-04-14T00:53:50.681Z,7.90
2018-04-14T00:56:18.954Z,7.80
2018-04-14T00:58:47.265Z,7.90
2018-04-14T01:01:14.797Z,7.80
2018-04-14T01:03:43.087Z,7.90
2018-04-14T01:06:10.609Z,7.90
2018-04-14T01:08:38.109Z,7.90
2018-04-14T01:11:05.629Z,7.80
2018-04-14T01:13:33.134Z,7.80
2018-04-14T01:16:00.628Z,7.80
2018-04-14T01:18:28.141Z,7.80
2018-04-14T01:20:55.651Z,7.80
2018-04-14T01:23:23.189Z,7.80
2018-04-14T01:25:50.697Z,7.70
2018-04-14T01:28:18.984Z,7.70
2018-04-14T01:30:47.251Z,7.70
2018-04-14T01:33:15.570Z,7.70
2018-04-14T01:35:43.082Z,7.70
2018-04-14T01:38:11.363Z,7.60
2018-04-14T01:40:39.645Z,7.60
2018-04-14T01:43:07.932Z,7.50
2018-04-14T01:45:35.475Z,7.50
2018-04-14T01:48:03.770Z,7.50
2018-04-14T01:50:31.290Z,7.50
2018-04-14T01:52:58.849Z,7.50
2018-04-14T01:55:26.347Z,7.50
2018-04-14T01:57:53.861Z,7.50
2018-04-14T02:00:21.419Z,7.50
2018-04-14T02:02:48.931Z,7.50
2018-04-14T02:05:16.461Z,7.50
2018-04-14T02:07:44.734Z,7.50
2018-04-14T02:10:13.037Z,7.50
2018-04-14T02:12:40.547Z,7.50
2018-04-14T02:15:08.089Z,7.50
2018-04-14T02:17:35.593Z,7.50
2018-04-14T02:20:03.140Z,7.60
2018-04-14T02:22:31.421Z,7.50
2018-04-14T02:24:59.693Z,7.50
2018-04-14T02:27:28.006Z,7.40
2018-04-14T02:29:56.288Z,7.50
2018-04-14T02:32:23.816Z,7.40
2018-04-14T02:34:52.087Z,7.40
2018-04-14T02:37:20.358Z,7.40
2018-04-14T02:39:48.680Z,7.30
2018-04-14T02:42:16.170Z,7.30
2018-04-14T02:44:43.680Z,7.30
2018-04-14T02:47:11.196Z,7.30
2018-04-14T02:49:38.728Z,7.30
2018-04-14T02:52:06.225Z,7.20
2018-04-14T02:54:34.561Z,7.10
2018-04-14T02:57:02.074Z,7.10
2018-04-14T02:59:30.350Z,7.00
2018-04-14T03:01:58.669Z,6.90
2018-04-14T03:04:26.175Z,6.90
2018-04-14T03:06:53.704Z,6.90
2018-04-14T03:09:21.207Z,6.90
2018-04-14T03:11:48.762Z,6.90
2018-04-14T03:14:16.258Z,6.90
2018-04-14T03:16:43.764Z,6.90
2018-04-14T03:19:11.291Z,6.90
2018-04-14T03:21:38.793Z,6.90
2018-04-14T03:24:06.327Z,6.80
2018-04-14T03:26:33.817Z,6.80
2018-04-14T03:29:01.340Z,6.90
2018-04-14T03:31:28.833Z,6.90
2018-04-14T03:33:56.349Z,6.90
2018-04-14T03:36:23.869Z,6.90
2018-04-14T03:38:51.405Z,6.90
2018-04-14T03:41:18.899Z,6.80
2018-04-14T03:43:46.424Z,6.80
2018-04-14T03:46:13.953Z,6.90
2018-04-14T03:48:41.500Z,6.80
2018-04-14T03:51:09.045Z,6.80
2018-04-14T03:53:36.552Z,6.80
2018-04-14T03:56:04.093Z,6.80
2018-04-14T03:58:31.581Z,6.80
2018-04-14T04:00:59.085Z,6.80
2018-04-14T04:03:26.640Z,6.70
2018-04-14T04:05:54.135Z,6.70
2018-04-14T04:08:22.416Z,6.60
2018-04-14T04:10:50.702Z,6.50
2018-04-14T04:13:18.253Z,6.50
2018-04-14T04:15:46.544Z,6.40
2018-04-14T04:18:14.060Z,6.40
2018-04-14T04:20:57.403Z,6.40
2018-04-14T04:23:36.901Z,6.40
2018-04-14T04:26:06.097Z,6.30
2018-04-14T04:28:33.609Z,6.20
2018-04-14T04:31:01.927Z,6.20
2018-04-14T04:33:29.429Z,6.20
2018-04-14T04:35:56.941Z,6.20
2018-04-14T04:38:24.472Z,6.20
2018-04-14T04:40:52.739Z,6.20
2018-04-14T04:43:21.034Z,6.20
2018-04-14T04:45:48.576Z,6.20
2018-04-14T04:48:16.848Z,6.20
2018-04-14T04:50:45.138Z,6.10
2018-04-14T04:53:12.676Z,6.10
2018-04-14T04:55:40.972Z,6.10
2018-04-14T04:58:09.285Z,6.10
2018-04-14T05:00:36.841Z,6.10
2018-04-14T05:03:04.370Z,6.20
2018-04-14T05:05:32.644Z,6.30
2018-04-14T05:08:00.939Z,6.30
2018-04-14T05:10:29.223Z,6.40
2018-04-14T05:12:56.738Z,6.40
2018-04-14T05:15:25.031Z,6.50
2018-04-14T05:17:53.314Z,6.60
2018-04-14T05:20:20.845Z,6.60
2018-04-14T05:22:48.337Z,6.70
2018-04-14T05:25:15.845Z,6.70
2018-04-14T05:27:43.360Z,6.70
2018-04-14T05:30:10.882Z,6.80
2018-04-14T05:32:39.184Z,6.90
2018-04-14T05:35:06.673Z,6.90
2018-04-14T05:37:34.239Z,6.90
2018-04-14T05:40:01.740Z,7.00
2018-04-14T05:42:30.029Z,7.10
2018-04-14T05:44:58.313Z,7.10
2018-04-14T05:47:25.813Z,7.10
2018-04-14T05:49:53.330Z,7.10
2018-04-14T05:52:20.847Z,7.20
2018-04-14T05:54:48.485Z,7.30
2018-04-14T05:57:15.982Z,7.30
2018-04-14T05:59:44.258Z,7.50
2018-04-14T06:02:11.778Z,7.50
2018-04-14T06:04:39.342Z,7.60
2018-04-14T06:07:06.874Z,7.60
2018-04-14T06:09:34.393Z,7.70
2018-04-14T06:12:02.697Z,7.80
2018-04-14T06:14:30.228Z,7.80
2018-04-14T06:16:57.751Z,8.00
2018-04-14T06:19:25.297Z,8.00
2018-04-14T06:21:52.831Z,8.10
2018-04-14T06:24:21.110Z,8.30
2018-04-14T06:26:48.664Z,8.30
2018-04-14T06:29:16.920Z,8.40
2018-04-14T06:31:45.225Z,8.50
2018-04-14T06:34:12.729Z,8.50
2018-04-14T06:36:40.242Z,8.60
2018-04-14T06:39:07.765Z,8.60
2018-04-14T06:41:35.253Z,8.70
2018-04-14T06:44:02.817Z,8.90
2018-04-14T06:46:30.363Z,9.00
2018-04-14T06:48:57.910Z,9.00
2018-04-14T06:51:25.441Z,9.10
2018-04-14T06:53:52.944Z,9.20
2018-04-14T06:56:20.498Z,9.30
2018-04-14T06:58:48.774Z,9.50
2018-04-14T07:01:17.075Z,9.60
2018-04-14T07:03:44.610Z,9.50
2018-04-14T07:06:12.905Z,9.80
2018-04-14T07:08:40.429Z,9.80
2018-04-14T07:11:07.942Z,9.80
2018-04-14T07:13:35.527Z,9.90
2018-04-14T07:16:03.031Z,10.00
2018-04-14T07:18:30.583Z,10.20
2018-04-14T07:20:58.871Z,10.40
2018-04-14T07:23:26.419Z,10.40
2018-04-14T07:25:54.693Z,10.60
2018-04-14T07:28:22.253Z,10.60
2018-04-14T07:30:50.544Z,10.90
2018-04-14T07:33:18.083Z,10.90
2018-04-14T07:35:46.402Z,10.90
2018-04-14T07:38:13.905Z,10.90
2018-04-14T07:40:41.425Z,11.00
2018-04-14T07:43:09.021Z,11.20
2018-04-14T07:45:36.526Z,11.30
2018-04-14T07:48:04.035Z,11.50
2018-04-14T07:50:31.556Z,11.60
2018-04-14T07:52:59.102Z,11.70
2018-04-14T07:55:26.906Z,11.80
2018-04-14T07:57:54.445Z,11.90
2018-04-14T08:00:21.961Z,12.10
2018-04-14T08:02:50.264Z,12.40
2018-04-14T08:05:17.808Z,12.40
2018-04-14T08:07:45.326Z,12.50
2018-04-14T08:10:12.858Z,12.50
2018-04-14T08:12:40.383Z,12.50
2018-04-14T08:15:07.932Z,12.70
2018-04-14T08:17:36.254Z,13.10
2018-04-14T08:20:03.787Z,13.10
2018-04-14T08:22:31.313Z,13.20
2018-04-14T08:24:59.628Z,13.40
2018-04-14T08:27:27.151Z,13.40
2018-04-14T08:29:55.461Z,13.60
2018-04-14T08:32:22.995Z,13.60
2018-04-14T08:34:51.262Z,13.80
2018-04-14T08:37:18.822Z,13.80
2018-04-14T08:39:46.330Z,13.90
2018-04-14T08:42:13.824Z,14.00
2018-04-14T08:44:41.343Z,14.20
2018-04-14T08:47:08.887Z,14.30
2018-04-14T08:49:36.422Z,14.50
2018-04-14T08:52:04.707Z,14.60
2018-04-14T08:54:33.046Z,14.70
2018-04-14T08:57:00.989Z,14.60
2018-04-14T08:59:28.527Z,14.80
2018-04-14T09:01:56.061Z,14.90
2018-04-14T09:04:24.339Z,15.20
2018-04-14T09:06:52.657Z,15.30
2018-04-14T09:09:20.189Z,15.30
2018-04-14T09:11:47.709Z,15.40
2018-04-14T09:14:15.267Z,15.40
2018-04-14T09:16:42.779Z,15.40
2018-04-14T09:19:10.334Z,15.60
2018-04-14T09:21:37.827Z,15.80
2018-04-14T09:24:05.377Z,15.90
2018-04-14T09:26:32.886Z,16.00
2018-04-14T09:29:01.191Z,16.20
2018-04-14T09:31:28.698Z,16.20
2018-04-14T09:33:56.233Z,16.20
2018-04-14T09:36:23.793Z,16.20
2018-04-14T09:38:51.346Z,16.30
2018-04-14T09:41:18.872Z,16.40
2018-04-14T09:43:47.182Z,16.60
2018-04-14T09:46:14.733Z,16.50
2018-04-14T09:48:42.293Z,16.70
2018-04-14T09:51:09.813Z,16.80
2018-04-14T09:53:38.116Z,17.10
2018-04-14T09:56:05.641Z,17.00
2018-04-14T09:58:33.942Z,17.20
2018-04-14T10:01:02.251Z,17.40
2018-04-14T10:03:29.761Z,17.40
2018-04-14T10:05:58.066Z,17.50
2018-04-14T10:08:25.589Z,17.50
2018-04-14T10:10:53.901Z,17.90
2018-04-14T10:13:21.429Z,17.90
2018-04-14T10:15:49.713Z,18.20
2018-04-14T10:18:17.990Z,18.30
2018-04-14T10:20:46.286Z,18.20
2018-04-14T10:23:13.818Z,18.20
2018-04-14T10:25:42.092Z,18.40
2018-04-14T10:28:10.408Z,18.20
2018-04-14T10:30:37.909Z,18.10
2018-04-14T10:33:05.425Z,18.30
2018-04-14T10:35:33.714Z,18.80
2018-04-14T10:38:01.301Z,18.80
2018-04-14T10:40:28.790Z,19.10
2018-04-14T10:42:56.328Z,19.40
2018-04-14T10:45:23.872Z,19.20
2018-04-14T10:47:51.389Z,19.40
2018-04-14T10:50:18.877Z,19.80
2018-04-14T10:52:46.398Z,20.00
2018-04-14T10:55:13.918Z,19.60
2018-04-14T10:57:41.457Z,19.40
2018-04-14T11:00:08.970Z,20.00
2018-04-14T11:02:36.497Z,21.00
2018-04-14T11:05:04.028Z,21.50
2018-04-14T11:07:31.559Z,22.10
2018-04-14T11:09:59.110Z,22.50
2018-04-14T11:12:26.613Z,22.50
2018-04-14T11:14:54.120Z,21.40
2018-04-14T11:17:21.673Z,20.90
2018-04-14T11:19:49.946Z,22.20
2018-04-14T11:22:18.257Z,23.00
2018-04-14T11:24:45.788Z,23.00
2018-04-14T11:27:14.066Z,22.90
2018-04-14T11:29:41.596Z,22.90
2018-04-14T11:32:09.104Z,22.50
2018-04-14T11:34:36.617Z,22.00
2018-04-14T11:37:04.152Z,21.50
2018-04-14T11:39:31.648Z,21.60
2018-04-14T11:41:59.925Z,21.70
2018-04-14T11:44:28.196Z,21.60
2018-04-14T11:46:56.515Z,21.30
2018-04-14T11:49:24.018Z,21.20
2018-04-14T11:51:51.541Z,21.10
2018-04-14T11:54:19.034Z,21.80
2018-04-14T11:56:46.537Z,22.00
2018-04-14T11:59:14.075Z,22.50
2018-04-14T12:01:42.320Z,23.50
2018-04-14T12:04:09.846Z,23.50
2018-04-14T12:06:37.421Z,23.70
2018-04-14T12:09:04.949Z,23.90
2018-04-14T12:11:32.479Z,24.20
2018-04-14T12:14:00.804Z,24.60
2018-04-14T12:16:28.335Z,24.60
2018-04-14T12:18:55.866Z,24.70
2018-04-14T12:21:24.153Z,24.90
2018-04-14T12:23:52.453Z,24.20
2018-04-14T12:26:19.937Z,24.20
2018-04-14T12:28:47.473Z,23.90
2018-04-14T12:31:14.984Z,24.50
2018-04-14T12:33:42.605Z,24.10
2018-04-14T12:36:10.133Z,23.90
2018-04-14T12:38:37.630Z,23.70
2018-04-14T12:41:05.185Z,24.10
2018-04-14T12:43:32.709Z,24.40
2018-04-14T12:46:01.002Z,23.70
2018-04-14T12:48:28.562Z,23.60
2018-04-14T12:50:56.055Z,24.00
2018-04-14T12:53:23.605Z,23.50
2018-04-14T12:55:51.149Z,23.40
2018-04-14T12:58:18.647Z,23.70
2018-04-14T13:00:46.214Z,23.40
2018-04-14T13:03:13.778Z,23.20
2018-04-14T13:05:42.076Z,24.80
2018-04-14T13:08:09.601Z,24.80
2018-04-14T13:10:37.099Z,24.40
2018-04-14T13:13:04.614Z,24.20
2018-04-14T13:15:32.123Z,24.70
2018-04-14T13:17:59.631Z,24.60
2018-04-14T13:20:27.143Z,25.00
2018-04-14T13:22:54.720Z,25.30
2018-04-14T13:25:22.223Z,25.80
2018-04-14T13:27:50.513Z,26.10
2018-04-14T13:30:18.814Z,25.80
2018-04-14T13:32:46.343Z,25.80
2018-04-14T13:35:14.621Z,25.60
2018-04-14T13:37:42.899Z,25.60
2018-04-14T13:40:11.228Z,25.60
2018-04-14T13:42:38.729Z,25.60
2018-04-14T13:45:07.049Z,26.10
2018-04-14T13:47:34.545Z,26.10
2018-04-14T13:50:02.067Z,26.10
2018-04-14T13:52:29.574Z,26.20
2018-04-14T13:54:57.113Z,26.70
2018-04-14T13:57:24.635Z,26.60
2018-04-14T13:59:52.150Z,26.40
2018-04-14T14:02:19.663Z,27.00
2018-04-14T14:04:47.203Z,26.70
2018-04-14T14:07:14.694Z,26.30
2018-04-14T14:09:42.362Z,25.80
2018-04-14T14:12:10.973Z,25.90
2018-04-14T14:14:39.298Z,25.00
2018-04-14T14:17:06.891Z,24.90
2018-04-14T14:19:34.411Z,25.50
2018-04-14T14:22:01.928Z,25.60
2018-04-14T14:24:30.247Z,26.90
2018-04-14T14:26:57.792Z,26.90
2018-04-14T14:29:25.325Z,26.90
2018-04-14T14:31:53.659Z,25.70
2018-04-14T14:34:21.209Z,25.60
2018-04-14T14:36:48.697Z,25.30
2018-04-14T14:39:16.228Z,25.50
2018-04-14T14:41:43.765Z,25.50
2018-04-14T14:44:11.292Z,25.10
2018-04-14T14:46:38.821Z,25.20
2018-04-14T14:49:06.354Z,25.50
2018-04-14T14:51:33.876Z,25.40
2018-04-14T14:54:02.157Z,25.50
2018-04-14T14:56:30.436Z,25.00
2018-04-14T14:58:58.738Z,24.80
2018-04-14T15:01:26.244Z,24.80
2018-04-14T15:03:56.829Z,24.30
2018-04-14T15:06:24.333Z,24.30
2018-04-14T15:08:51.884Z,24.30
2018-04-14T15:11:19.400Z,23.90
2018-04-14T15:13:46.912Z,24.10
2018-04-14T15:16:15.230Z,24.60
2018-04-14T15:18:42.781Z,24.60
2018-04-14T15:21:11.060Z,25.60
2018-04-14T15:23:38.560Z,25.60
2018-04-14T15:26:06.111Z,25.60
2018-04-14T15:28:33.637Z,25.30
2018-04-14T15:31:01.196Z,25.60
2018-04-14T15:33:28.758Z,25.00
2018-04-14T15:35:56.265Z,25.00
2018-04-14T15:38:23.802Z,24.80
2018-04-14T15:40:51.330Z,24.30
2018-04-14T15:43:20.646Z,24.50
2018-04-14T15:45:48.247Z,24.40
2018-04-14T15:48:15.772Z,24.60
2018-04-14T15:50:43.309Z,24.70
2018-04-14T15:53:10.836Z,24.50
2018-04-14T15:55:38.510Z,24.40
2018-04-14T15:58:06.791Z,23.70
2018-04-14T16:00:35.062Z,23.30
2018-04-14T16:03:03.341Z,23.00
2018-04-14T16:05:31.637Z,23.40
2018-04-14T16:07:59.151Z,23.40
2018-04-14T16:10:26.671Z,23.20
2018-04-14T16:12:54.183Z,23.10
2018-04-14T16:15:22.501Z,23.00
2018-04-14T16:17:50.043Z,23.00
2018-04-14T16:20:17.555Z,22.90
2018-04-14T16:22:45.126Z,22.80
2018-04-14T16:25:12.617Z,22.90
2018-04-14T16:27:40.945Z,22.80
2018-04-14T16:30:08.477Z,22.80
2018-04-14T16:32:36.027Z,22.50
2018-04-14T16:35:03.546Z,22.40
2018-04-14T16:37:31.050Z,22.40
2018-04-14T16:39:58.569Z,22.40
2018-04-14T16:42:26.846Z,22.40
2018-04-14T16:44:55.150Z,22.10
2018-04-14T16:47:22.650Z,22.10
2018-04-14T16:49:50.513Z,22.10
2018-04-14T16:52:18.124Z,22.00
2018-04-14T16:54:45.673Z,21.80
2018-04-14T16:57:13.944Z,21.90
2018-04-14T16:59:42.248Z,21.70
2018-04-14T17:02:09.754Z,21.70
2018-04-14T17:04:37.387Z,21.40
2018-04-14T17:07:04.946Z,21.30
2018-04-14T17:09:32.488Z,21.30
2018-04-14T17:11:59.982Z,21.40
2018-04-14T17:14:27.612Z,21.60
2018-04-14T17:16:55.153Z,21.60
2018-04-14T17:19:23.467Z,21.40
2018-04-14T17:21:51.027Z,21.30
2018-04-14T17:24:18.549Z,21.40
2018-04-14T17:26:46.825Z,21.30
2018-04-14T17:29:14.540Z,21.20
2018-04-14T17:31:42.186Z,21.00
2018-04-14T17:34:09.953Z,21.10
2018-04-14T17:36:37.472Z,21.00
2018-04-14T17:39:05.874Z,20.70
2018-04-14T17:41:33.472Z,20.60
2018-04-14T17:44:01.014Z,20.70
2018-04-14T17:46:28.527Z,20.60
2018-04-14T17:48:56.099Z,20.60
2018-04-14T17:51:23.605Z,20.40
2018-04-14T17:53:51.263Z,20.40
2018-04-14T17:56:18.793Z,20.40
2018-04-14T17:58:46.487Z,20.20
2018-04-14T18:01:14.774Z,20.00
2018-04-14T18:03:42.333Z,20.00
2018-04-14T18:06:09.990Z,19.80
2018-04-14T18:08:37.509Z,19.70
2018-04-14T18:11:05.057Z,19.50
2018-04-14T18:13:32.574Z,19.50
2018-04-14T18:16:00.100Z,19.30
2018-04-14T18:18:27.687Z,19.20
2018-04-14T18:20:55.231Z,19.20
2018-04-14T18:23:22.732Z,19.10
2018-04-14T18:25:51.029Z,18.90
2018-04-14T18:28:18.539Z,18.90
2018-04-14T18:30:46.113Z,18.80
2018-04-14T18:33:13.624Z,18.60
2018-04-14T18:35:41.181Z,18.50
2018-04-14T18:38:10.478Z,18.40
2018-04-14T18:40:38.032Z,18.40
2018-04-14T18:43:05.590Z,18.30
2018-04-14T18:45:33.090Z,18.10
2018-04-14T18:48:00.625Z,18.00
2018-04-14T18:50:28.151Z,17.90
2018-04-14T18:52:55.700Z,17.80
2018-04-14T18:55:24.008Z,17.60
2018-04-14T18:57:51.565Z,17.60
2018-04-14T19:00:19.094Z,17.50
2018-04-14T19:02:47.418Z,17.40
2018-04-14T19:05:14.932Z,17.40
2018-04-14T19:07:43.256Z,17.20
2018-04-14T19:10:10.787Z,17.20
2018-04-14T19:12:38.294Z,17.10
2018-04-14T19:15:05.839Z,17.00
2018-04-14T19:17:33.397Z,16.90
2018-04-14T19:20:00.941Z,16.80
2018-04-14T19:22:28.499Z,16.80
2018-04-14T19:24:56.022Z,16.70
2018-04-14T19:27:23.603Z,16.50
2018-04-14T19:29:51.132Z,16.40
2018-04-14T19:32:19.513Z,16.30
2018-04-14T19:34:47.024Z,16.30
2018-04-14T19:37:14.525Z,16.20
2018-04-14T19:39:42.061Z,16.10
2018-04-14T19:42:09.590Z,16.10
2018-04-14T19:44:37.152Z,16.00
2018-04-14T19:47:04.686Z,15.90
2018-04-14T19:49:32.184Z,15.80
2018-04-14T19:51:59.732Z,15.70
2018-04-14T19:54:27.253Z,15.60
2018-04-14T19:56:55.565Z,15.60
2018-04-14T19:59:23.090Z,15.50
2018-04-14T20:01:51.389Z,15.50
2018-04-14T20:04:18.921Z,15.50
2018-04-14T20:06:47.207Z,15.40
2018-04-14T20:09:15.524Z,15.20
2018-04-14T20:11:43.060Z,15.20
2018-04-14T20:14:10.572Z,15.00
2018-04-14T20:16:38.874Z,15.00
2018-04-14T20:19:06.438Z,15.00
2018-04-14T20:21:33.982Z,14.90
2018-04-14T20:24:02.395Z,14.80
2018-04-14T20:26:29.897Z,14.80
2018-04-14T20:28:57.414Z,14.80
2018-04-14T20:31:24.930Z,14.70
2018-04-14T20:33:53.213Z,14.50
2018-04-14T20:36:21.519Z,14.30
2018-04-14T20:38:49.047Z,14.30
2018-04-14T20:41:17.341Z,14.30
2018-04-14T20:43:44.851Z,14.30
2018-04-14T20:46:12.406Z,14.40
2018-04-14T20:48:39.921Z,14.40
2018-04-14T20:51:07.442Z,14.40
2018-04-14T20:53:34.986Z,14.40
2018-04-14T20:56:02.524Z,14.30
2018-04-14T20:58:30.054Z,14.40
2018-04-14T21:00:57.566Z,14.30
2018-04-14T21:03:25.086Z,14.30
2018-04-14T21:05:53.377Z,14.30
2018-04-14T21:08:20.963Z,14.30
2018-04-14T21:10:48.595Z,14.20
2018-04-14T21:13:16.160Z,14.10
2018-04-14T21:15:43.695Z,14.00
2018-04-14T21:18:11.209Z,14.00
2018-04-14T21:20:38.761Z,14.10
2018-04-14T21:23:06.264Z,14.00
2018-04-14T21:25:33.766Z,14.10
2018-04-14T21:28:01.301Z,14.00
2018-04-14T21:30:28.854Z,14.00
2018-04-14T21:32:56.388Z,14.00
2018-04-14T21:35:23.915Z,14.00
2018-04-14T21:37:51.461Z,14.00
2018-04-14T21:40:19.002Z,14.00
2018-04-14T21:42:46.520Z,13.90
2018-04-14T21:45:14.077Z,13.90
2018-04-14T21:47:42.374Z,13.90
2018-04-14T21:50:09.921Z,13.90
2018-04-14T21:52:37.446Z,13.90
2018-04-14T21:55:05.055Z,13.80
2018-04-14T21:57:32.590Z,13.80
2018-04-14T22:00:00.867Z,13.80
2018-04-14T22:02:28.417Z,13.80
2018-04-14T22:04:56.795Z,13.70
2018-04-14T22:07:25.079Z,13.60
2018-04-14T22:09:53.400Z,13.60
2018-04-14T22:12:20.899Z,13.60
2018-04-14T22:14:48.434Z,13.60
2018-04-14T22:17:15.957Z,13.60
2018-04-14T22:19:43.496Z,13.50
2018-04-14T22:22:11.762Z,13.50
2018-04-14T22:24:40.068Z,13.50
2018-04-14T22:27:07.575Z,13.50
2018-04-14T22:29:35.129Z,13.50
2018-04-14T22:32:02.668Z,13.50
2018-04-14T22:34:30.183Z,13.50
2018-04-14T22:36:58.481Z,13.50
2018-04-14T22:39:26.018Z,13.40
2018-04-14T22:41:54.282Z,13.50
2018-04-14T22:44:21.831Z,13.40
2018-04-14T22:46:49.346Z,13.40
2018-04-14T22:49:16.892Z,13.40
2018-04-14T22:51:44.395Z,13.50
2018-04-14T22:54:11.911Z,13.40
2018-04-14T22:56:39.413Z,13.40
2018-04-14T22:59:06.946Z,13.40
2018-04-14T23:01:34.597Z,13.30
2018-04-14T23:04:02.140Z,13.30
2018-04-14T23:06:29.674Z,13.20
2018-04-14T23:08:57.192Z,13.10
2018-04-14T23:11:24.737Z,13.10
2018-04-14T23:13:52.245Z,13.10
2018-04-14T23:16:19.758Z,13.10
2018-04-14T23:18:47.287Z,13.10
2018-04-14T23:21:14.827Z,13.00
2018-04-14T23:23:43.101Z,13.10
2018-04-14T23:26:11.394Z,13.10
2018-04-14T23:28:38.926Z,13.00
2018-04-14T23:31:06.460Z,13.10
2018-04-14T23:33:34.030Z,13.00
2018-04-14T23:36:01.527Z,12.90
2018-04-14T23:38:29.829Z,12.80
2018-04-14T23:40:57.378Z,12.80
2018-04-14T23:43:24.924Z,12.80
2018-04-14T23:45:52.477Z,12.70
2018-04-14T23:48:21.227Z,12.70
2018-04-14T23:50:48.780Z,12.70
2018-04-14T23:53:16.291Z,12.70
2018-04-14T23:55:43.830Z,12.70
2018-04-14T23:58:12.109Z,12.70
